sensor_id;sensor_type;location;lat;lon;timestamp;P1;durP1;ratioP1;P2;durP2;ratioP2
58470;SDS011;44258;51.288;12.068;2022-07-31T00:01:47;14.10;;;7.13;;
58470;SDS011;44258;51.288;12.068;2022-07-31T00:04:15;13.13;;;6.82;;
58470;SDS011;44258;51.288;12.068;2022-07-31T00:06:42;12.15;;;6.40;;
58470;SDS011;44258;51.288;12.068;2022-07-31T00:09:08;11.45;;;6.15;;
58470;SDS011;44258;51.288;12.068;2022-07-31T00:11:35;14.20;;;7.25;;
58470;SDS011;44258;51.288;12.068;2022-07-31T00:14:02;14.45;;;7.25;;
58470;SDS011;44258;51.288;12.068;2022-07-31T00:16:30;11.32;;;6.95;;
58470;SDS011;44258;51.288;12.068;2022-07-31T00:18:56;11.90;;;6.43;;
58470;SDS011;44258;51.288;12.068;2022-07-31T00:21:23;12.35;;;7.50;;
58470;SDS011;44258;51.288;12.068;2022-07-31T00:23:49;12.00;;;7.05;;
58470;SDS011;44258;51.288;12.068;2022-07-31T00:26:16;13.20;;;7.20;;
58470;SDS011;44258;51.288;12.068;2022-07-31T00:28:43;12.32;;;7.20;;
58470;SDS011;44258;51.288;12.068;2022-07-31T00:31:11;13.10;;;7.68;;
58470;SDS011;44258;51.288;12.068;2022-07-31T00:33:39;13.52;;;7.35;;
58470;SDS011;44258;51.288;12.068;2022-07-31T00:36:06;13.38;;;8.13;;
58470;SDS011;44258;51.288;12.068;2022-07-31T00:38:33;13.88;;;7.47;;
58470;SDS011;44258;51.288;12.068;2022-07-31T00:41:01;13.15;;;7.50;;
58470;SDS011;44258;51.288;12.068;2022-07-31T00:43:28;13.20;;;7.50;;
58470;SDS011;44258;51.288;12.068;2022-07-31T00:45:54;12.80;;;7.68;;
58470;SDS011;44258;51.288;12.068;2022-07-31T00:48:22;12.80;;;6.95;;
58470;SDS011;44258;51.288;12.068;2022-07-31T00:50:50;13.55;;;7.80;;
58470;SDS011;44258;51.288;12.068;2022-07-31T00:53:16;13.95;;;7.60;;
58470;SDS011;44258;51.288;12.068;2022-07-31T00:55:43;12.93;;;8.00;;
58470;SDS011;44258;51.288;12.068;2022-07-31T00:58:09;13.27;;;7.72;;
58470;SDS011;44258;51.288;12.068;2022-07-31T01:00:36;12.60;;;7.32;;
58470;SDS011;44258;51.288;12.068;2022-07-31T01:03:03;15.30;;;8.25;;
58470;SDS011;44258;51.288;12.068;2022-07-31T01:05:29;14.07;;;7.60;;
58470;SDS011;44258;51.288;12.068;2022-07-31T01:07:58;14.75;;;8.18;;
58470;SDS011;44258;51.288;12.068;2022-07-31T01:13:01;14.88;;;8.50;;
58470;SDS011;44258;51.288;12.068;2022-07-31T01:15:33;14.25;;;8.70;;
58470;SDS011;44258;51.288;12.068;2022-07-31T01:18:01;15.02;;;8.43;;
58470;SDS011;44258;51.288;12.068;2022-07-31T01:20:30;15.45;;;8.40;;
58470;SDS011;44258;51.288;12.068;2022-07-31T01:23:15;15.20;;;9.18;;
58470;SDS011;44258;51.288;12.068;2022-07-31T01:25:52;14.48;;;8.52;;
58470;SDS011;44258;51.288;12.068;2022-07-31T01:28:28;16.08;;;8.45;;
58470;SDS011;44258;51.288;12.068;2022-07-31T01:31:23;14.40;;;8.32;;
58470;SDS011;44258;51.288;12.068;2022-07-31T01:33:54;15.73;;;8.80;;
58470;SDS011;44258;51.288;12.068;2022-07-31T01:36:24;16.52;;;8.63;;
58470;SDS011;44258;51.288;12.068;2022-07-31T01:38:59;15.82;;;8.63;;
58470;SDS011;44258;51.288;12.068;2022-07-31T01:41:27;14.38;;;8.85;;
58470;SDS011;44258;51.288;12.068;2022-07-31T01:43:58;17.17;;;9.07;;
58470;SDS011;44258;51.288;12.068;2022-07-31T01:46:28;16.52;;;8.68;;
58470;SDS011;44258;51.288;12.068;2022-07-31T01:48:58;14.50;;;8.30;;
58470;SDS011;44258;51.288;12.068;2022-07-31T01:51:27;14.15;;;8.07;;
58470;SDS011;44258;51.288;12.068;2022-07-31T01:53:56;14.93;;;8.73;;
58470;SDS011;44258;51.288;12.068;2022-07-31T01:56:27;15.20;;;8.35;;
58470;SDS011;44258;51.288;12.068;2022-07-31T01:58:55;14.82;;;8.27;;
58470;SDS011;44258;51.288;12.068;2022-07-31T02:01:25;15.57;;;8.30;;
58470;SDS011;44258;51.288;12.068;2022-07-31T02:03:53;15.75;;;8.63;;
58470;SDS011;44258;51.288;12.068;2022-07-31T02:06:21;15.20;;;8.30;;
58470;SDS011;44258;51.288;12.068;2022-07-31T02:08:50;14.40;;;8.77;;
58470;SDS011;44258;51.288;12.068;2022-07-31T02:11:19;14.85;;;8.95;;
58470;SDS011;44258;51.288;12.068;2022-07-31T02:13:46;16.88;;;8.93;;
58470;SDS011;44258;51.288;12.068;2022-07-31T02:16:15;15.20;;;8.82;;
58470;SDS011;44258;51.288;12.068;2022-07-31T02:18:45;14.80;;;9.10;;
58470;SDS011;44258;51.288;12.068;2022-07-31T02:21:13;15.85;;;9.43;;
58470;SDS011;44258;51.288;12.068;2022-07-31T02:23:40;15.98;;;9.40;;
58470;SDS011;44258;51.288;12.068;2022-07-31T02:26:07;13.82;;;8.48;;
58470;SDS011;44258;51.288;12.068;2022-07-31T02:28:34;14.85;;;9.00;;
58470;SDS011;44258;51.288;12.068;2022-07-31T02:31:03;17.58;;;9.65;;
58470;SDS011;44258;51.288;12.068;2022-07-31T02:33:34;14.10;;;8.63;;
58470;SDS011;44258;51.288;12.068;2022-07-31T02:36:04;15.80;;;8.63;;
58470;SDS011;44258;51.288;12.068;2022-07-31T02:38:32;14.10;;;8.63;;
58470;SDS011;44258;51.288;12.068;2022-07-31T02:41:00;13.52;;;8.07;;
58470;SDS011;44258;51.288;12.068;2022-07-31T02:43:30;15.82;;;8.50;;
58470;SDS011;44258;51.288;12.068;2022-07-31T02:45:58;15.82;;;8.85;;
58470;SDS011;44258;51.288;12.068;2022-07-31T02:48:26;16.20;;;8.82;;
58470;SDS011;44258;51.288;12.068;2022-07-31T02:50:54;15.30;;;8.57;;
58470;SDS011;44258;51.288;12.068;2022-07-31T02:53:22;16.90;;;9.35;;
58470;SDS011;44258;51.288;12.068;2022-07-31T02:55:49;15.68;;;8.35;;
58470;SDS011;44258;51.288;12.068;2022-07-31T02:58:16;18.10;;;9.60;;
58470;SDS011;44258;51.288;12.068;2022-07-31T03:00:43;15.73;;;8.82;;
58470;SDS011;44258;51.288;12.068;2022-07-31T03:03:09;14.60;;;8.63;;
58470;SDS011;44258;51.288;12.068;2022-07-31T03:05:36;14.75;;;8.35;;
58470;SDS011;44258;51.288;12.068;2022-07-31T03:08:02;16.08;;;9.30;;
58470;SDS011;44258;51.288;12.068;2022-07-31T03:10:31;14.48;;;8.68;;
58470;SDS011;44258;51.288;12.068;2022-07-31T03:12:57;14.63;;;7.97;;
58470;SDS011;44258;51.288;12.068;2022-07-31T03:15:26;14.73;;;8.50;;
58470;SDS011;44258;51.288;12.068;2022-07-31T03:17:55;15.95;;;8.68;;
58470;SDS011;44258;51.288;12.068;2022-07-31T03:20:23;14.95;;;9.23;;
58470;SDS011;44258;51.288;12.068;2022-07-31T03:22:50;16.60;;;8.93;;
58470;SDS011;44258;51.288;12.068;2022-07-31T03:25:17;17.15;;;9.32;;
58470;SDS011;44258;51.288;12.068;2022-07-31T03:27:47;13.63;;;8.52;;
58470;SDS011;44258;51.288;12.068;2022-07-31T03:30:15;14.38;;;8.93;;
58470;SDS011;44258;51.288;12.068;2022-07-31T03:32:43;17.10;;;8.48;;
58470;SDS011;44258;51.288;12.068;2022-07-31T03:35:10;16.08;;;8.80;;
58470;SDS011;44258;51.288;12.068;2022-07-31T03:37:36;15.00;;;9.35;;
58470;SDS011;44258;51.288;12.068;2022-07-31T03:40:03;15.98;;;9.43;;
58470;SDS011;44258;51.288;12.068;2022-07-31T03:42:30;16.08;;;8.70;;
58470;SDS011;44258;51.288;12.068;2022-07-31T03:44:58;17.17;;;9.48;;
58470;SDS011;44258;51.288;12.068;2022-07-31T03:47:26;15.80;;;9.35;;
58470;SDS011;44258;51.288;12.068;2022-07-31T03:49:52;15.70;;;9.60;;
58470;SDS011;44258;51.288;12.068;2022-07-31T03:52:19;15.80;;;8.90;;
58470;SDS011;44258;51.288;12.068;2022-07-31T03:54:46;15.23;;;8.05;;
58470;SDS011;44258;51.288;12.068;2022-07-31T03:57:13;17.27;;;9.80;;
58470;SDS011;44258;51.288;12.068;2022-07-31T03:59:41;20.15;;;9.60;;
58470;SDS011;44258;51.288;12.068;2022-07-31T04:02:10;17.17;;;9.18;;
58470;SDS011;44258;51.288;12.068;2022-07-31T04:04:36;16.05;;;9.07;;
58470;SDS011;44258;51.288;12.068;2022-07-31T04:07:04;16.70;;;9.13;;
58470;SDS011;44258;51.288;12.068;2022-07-31T04:09:31;14.98;;;8.80;;
58470;SDS011;44258;51.288;12.068;2022-07-31T04:11:57;15.27;;;9.55;;
58470;SDS011;44258;51.288;12.068;2022-07-31T04:14:24;17.73;;;9.20;;
58470;SDS011;44258;51.288;12.068;2022-07-31T04:16:50;16.83;;;9.40;;
58470;SDS011;44258;51.288;12.068;2022-07-31T04:19:18;15.63;;;8.88;;
58470;SDS011;44258;51.288;12.068;2022-07-31T04:21:45;15.88;;;8.82;;
58470;SDS011;44258;51.288;12.068;2022-07-31T04:24:11;15.45;;;9.40;;
58470;SDS011;44258;51.288;12.068;2022-07-31T04:26:41;16.50;;;9.43;;
58470;SDS011;44258;51.288;12.068;2022-07-31T04:29:07;16.92;;;9.02;;
58470;SDS011;44258;51.288;12.068;2022-07-31T04:31:34;15.88;;;9.15;;
58470;SDS011;44258;51.288;12.068;2022-07-31T04:34:00;17.00;;;9.43;;
58470;SDS011;44258;51.288;12.068;2022-07-31T04:36:29;16.20;;;9.23;;
58470;SDS011;44258;51.288;12.068;2022-07-31T04:38:55;15.52;;;8.63;;
58470;SDS011;44258;51.288;12.068;2022-07-31T04:41:22;14.43;;;8.82;;
58470;SDS011;44258;51.288;12.068;2022-07-31T04:43:49;15.65;;;8.90;;
58470;SDS011;44258;51.288;12.068;2022-07-31T04:46:15;15.45;;;8.95;;
58470;SDS011;44258;51.288;12.068;2022-07-31T04:48:42;18.27;;;8.80;;
58470;SDS011;44258;51.288;12.068;2022-07-31T04:51:08;16.73;;;9.20;;
58470;SDS011;44258;51.288;12.068;2022-07-31T04:53:43;17.13;;;8.93;;
58470;SDS011;44258;51.288;12.068;2022-07-31T04:56:09;15.68;;;8.82;;
58470;SDS011;44258;51.288;12.068;2022-07-31T04:58:53;17.80;;;8.98;;
58470;SDS011;44258;51.288;12.068;2022-07-31T05:01:20;13.90;;;8.05;;
58470;SDS011;44258;51.288;12.068;2022-07-31T05:03:46;17.50;;;9.38;;
58470;SDS011;44258;51.288;12.068;2022-07-31T05:06:13;15.20;;;8.70;;
58470;SDS011;44258;51.288;12.068;2022-07-31T05:08:39;16.90;;;8.95;;
58470;SDS011;44258;51.288;12.068;2022-07-31T05:11:07;16.70;;;8.95;;
58470;SDS011;44258;51.288;12.068;2022-07-31T05:13:58;15.20;;;8.60;;
58470;SDS011;44258;51.288;12.068;2022-07-31T05:16:26;16.40;;;9.07;;
58470;SDS011;44258;51.288;12.068;2022-07-31T05:18:53;15.13;;;9.18;;
58470;SDS011;44258;51.288;12.068;2022-07-31T05:21:20;17.20;;;8.90;;
58470;SDS011;44258;51.288;12.068;2022-07-31T05:23:48;15.85;;;9.32;;
58470;SDS011;44258;51.288;12.068;2022-07-31T05:26:16;15.35;;;8.85;;
58470;SDS011;44258;51.288;12.068;2022-07-31T05:28:44;15.35;;;8.95;;
58470;SDS011;44258;51.288;12.068;2022-07-31T05:31:11;18.00;;;9.05;;
58470;SDS011;44258;51.288;12.068;2022-07-31T05:33:38;15.35;;;8.95;;
58470;SDS011;44258;51.288;12.068;2022-07-31T05:36:04;20.35;;;9.05;;
58470;SDS011;44258;51.288;12.068;2022-07-31T05:38:31;16.63;;;8.80;;
58470;SDS011;44258;51.288;12.068;2022-07-31T05:40:58;17.10;;;9.57;;
58470;SDS011;44258;51.288;12.068;2022-07-31T05:43:26;16.13;;;9.43;;
58470;SDS011;44258;51.288;12.068;2022-07-31T05:45:53;15.95;;;8.70;;
58470;SDS011;44258;51.288;12.068;2022-07-31T05:48:20;14.07;;;8.52;;
58470;SDS011;44258;51.288;12.068;2022-07-31T05:50:47;14.43;;;8.00;;
58470;SDS011;44258;51.288;12.068;2022-07-31T05:53:15;16.15;;;8.75;;
58470;SDS011;44258;51.288;12.068;2022-07-31T05:55:42;13.02;;;7.85;;
58470;SDS011;44258;51.288;12.068;2022-07-31T05:58:10;12.65;;;7.22;;
58470;SDS011;44258;51.288;12.068;2022-07-31T06:00:38;14.50;;;7.45;;
58470;SDS011;44258;51.288;12.068;2022-07-31T06:03:05;14.88;;;8.15;;
58470;SDS011;44258;51.288;12.068;2022-07-31T06:05:32;13.25;;;7.15;;
58470;SDS011;44258;51.288;12.068;2022-07-31T06:07:59;13.10;;;7.57;;
58470;SDS011;44258;51.288;12.068;2022-07-31T06:10:25;13.73;;;7.90;;
58470;SDS011;44258;51.288;12.068;2022-07-31T06:12:52;14.05;;;7.75;;
58470;SDS011;44258;51.288;12.068;2022-07-31T06:15:19;13.73;;;7.35;;
58470;SDS011;44258;51.288;12.068;2022-07-31T06:17:47;14.73;;;7.45;;
58470;SDS011;44258;51.288;12.068;2022-07-31T06:20:14;13.13;;;7.57;;
58470;SDS011;44258;51.288;12.068;2022-07-31T06:22:40;14.90;;;7.68;;
58470;SDS011;44258;51.288;12.068;2022-07-31T06:25:08;12.75;;;7.78;;
58470;SDS011;44258;51.288;12.068;2022-07-31T06:27:36;14.60;;;7.32;;
58470;SDS011;44258;51.288;12.068;2022-07-31T06:30:02;14.40;;;8.80;;
58470;SDS011;44258;51.288;12.068;2022-07-31T06:32:30;13.95;;;7.90;;
58470;SDS011;44258;51.288;12.068;2022-07-31T06:34:58;12.77;;;7.55;;
58470;SDS011;44258;51.288;12.068;2022-07-31T06:37:25;12.25;;;7.40;;
58470;SDS011;44258;51.288;12.068;2022-07-31T06:39:52;12.73;;;6.82;;
58470;SDS011;44258;51.288;12.068;2022-07-31T06:42:19;12.10;;;7.00;;
58470;SDS011;44258;51.288;12.068;2022-07-31T06:44:46;13.25;;;6.78;;
58470;SDS011;44258;51.288;12.068;2022-07-31T06:47:13;12.77;;;6.80;;
58470;SDS011;44258;51.288;12.068;2022-07-31T06:49:40;12.32;;;6.40;;
58470;SDS011;44258;51.288;12.068;2022-07-31T06:52:08;12.73;;;6.63;;
58470;SDS011;44258;51.288;12.068;2022-07-31T06:54:34;11.82;;;6.32;;
58470;SDS011;44258;51.288;12.068;2022-07-31T06:57:01;13.40;;;6.50;;
58470;SDS011;44258;51.288;12.068;2022-07-31T06:59:27;13.38;;;6.20;;
58470;SDS011;44258;51.288;12.068;2022-07-31T07:01:54;12.18;;;6.38;;
58470;SDS011;44258;51.288;12.068;2022-07-31T07:04:20;10.63;;;6.15;;
58470;SDS011;44258;51.288;12.068;2022-07-31T07:06:47;12.07;;;6.20;;
58470;SDS011;44258;51.288;12.068;2022-07-31T07:09:15;10.70;;;6.35;;
58470;SDS011;44258;51.288;12.068;2022-07-31T07:11:41;10.23;;;6.03;;
58470;SDS011;44258;51.288;12.068;2022-07-31T07:14:07;9.25;;;5.28;;
58470;SDS011;44258;51.288;12.068;2022-07-31T07:16:34;13.27;;;6.90;;
58470;SDS011;44258;51.288;12.068;2022-07-31T07:19:01;12.73;;;7.13;;
58470;SDS011;44258;51.288;12.068;2022-07-31T07:21:27;12.10;;;6.72;;
58470;SDS011;44258;51.288;12.068;2022-07-31T07:23:54;10.65;;;6.50;;
58470;SDS011;44258;51.288;12.068;2022-07-31T07:26:22;11.80;;;6.68;;
58470;SDS011;44258;51.288;12.068;2022-07-31T07:28:49;12.32;;;6.30;;
58470;SDS011;44258;51.288;12.068;2022-07-31T07:31:15;11.38;;;6.50;;
58470;SDS011;44258;51.288;12.068;2022-07-31T07:33:42;11.98;;;6.25;;
58470;SDS011;44258;51.288;12.068;2022-07-31T07:36:08;13.43;;;6.22;;
58470;SDS011;44258;51.288;12.068;2022-07-31T07:38:35;11.77;;;6.60;;
58470;SDS011;44258;51.288;12.068;2022-07-31T07:41:01;9.85;;;5.60;;
58470;SDS011;44258;51.288;12.068;2022-07-31T07:43:29;13.50;;;6.15;;
58470;SDS011;44258;51.288;12.068;2022-07-31T07:45:56;10.55;;;5.68;;
58470;SDS011;44258;51.288;12.068;2022-07-31T07:48:22;12.60;;;6.10;;
58470;SDS011;44258;51.288;12.068;2022-07-31T07:50:49;11.48;;;5.50;;
58470;SDS011;44258;51.288;12.068;2022-07-31T07:53:15;13.52;;;6.05;;
58470;SDS011;44258;51.288;12.068;2022-07-31T07:55:42;10.32;;;5.78;;
58470;SDS011;44258;51.288;12.068;2022-07-31T07:58:08;9.55;;;5.30;;
58470;SDS011;44258;51.288;12.068;2022-07-31T08:00:36;10.07;;;5.40;;
58470;SDS011;44258;51.288;12.068;2022-07-31T08:03:03;8.75;;;4.88;;
58470;SDS011;44258;51.288;12.068;2022-07-31T08:05:29;9.90;;;4.93;;
58470;SDS011;44258;51.288;12.068;2022-07-31T08:07:56;9.02;;;5.35;;
58470;SDS011;44258;51.288;12.068;2022-07-31T08:10:23;9.52;;;5.38;;
58470;SDS011;44258;51.288;12.068;2022-07-31T08:12:50;8.73;;;5.05;;
58470;SDS011;44258;51.288;12.068;2022-07-31T08:15:18;8.90;;;4.63;;
58470;SDS011;44258;51.288;12.068;2022-07-31T08:17:46;9.00;;;5.18;;
58470;SDS011;44258;51.288;12.068;2022-07-31T08:20:13;10.13;;;5.30;;
58470;SDS011;44258;51.288;12.068;2022-07-31T08:22:39;10.57;;;5.15;;
58470;SDS011;44258;51.288;12.068;2022-07-31T08:25:06;8.70;;;4.88;;
58470;SDS011;44258;51.288;12.068;2022-07-31T08:27:32;8.48;;;4.97;;
58470;SDS011;44258;51.288;12.068;2022-07-31T08:30:01;10.55;;;5.40;;
58470;SDS011;44258;51.288;12.068;2022-07-31T08:32:27;8.20;;;4.75;;
58470;SDS011;44258;51.288;12.068;2022-07-31T08:34:55;9.63;;;4.57;;
58470;SDS011;44258;51.288;12.068;2022-07-31T08:37:22;9.65;;;4.97;;
58470;SDS011;44258;51.288;12.068;2022-07-31T08:39:48;7.53;;;4.22;;
58470;SDS011;44258;51.288;12.068;2022-07-31T08:42:16;11.18;;;5.40;;
58470;SDS011;44258;51.288;12.068;2022-07-31T08:44:43;9.23;;;5.43;;
58470;SDS011;44258;51.288;12.068;2022-07-31T08:47:11;8.77;;;4.57;;
58470;SDS011;44258;51.288;12.068;2022-07-31T08:49:39;10.13;;;5.28;;
58470;SDS011;44258;51.288;12.068;2022-07-31T08:52:09;9.35;;;4.80;;
58470;SDS011;44258;51.288;12.068;2022-07-31T08:54:42;8.65;;;4.90;;
58470;SDS011;44258;51.288;12.068;2022-07-31T08:57:10;9.55;;;4.60;;
58470;SDS011;44258;51.288;12.068;2022-07-31T08:59:37;9.55;;;5.57;;
58470;SDS011;44258;51.288;12.068;2022-07-31T09:02:05;10.07;;;5.75;;
58470;SDS011;44258;51.288;12.068;2022-07-31T09:04:31;9.30;;;4.93;;
58470;SDS011;44258;51.288;12.068;2022-07-31T09:06:58;9.70;;;5.22;;
58470;SDS011;44258;51.288;12.068;2022-07-31T09:09:26;9.02;;;5.00;;
58470;SDS011;44258;51.288;12.068;2022-07-31T09:11:53;10.77;;;4.72;;
58470;SDS011;44258;51.288;12.068;2022-07-31T09:14:23;9.18;;;5.20;;
58470;SDS011;44258;51.288;12.068;2022-07-31T09:16:51;8.70;;;4.43;;
58470;SDS011;44258;51.288;12.068;2022-07-31T09:19:18;8.20;;;4.35;;
58470;SDS011;44258;51.288;12.068;2022-07-31T09:21:46;9.70;;;5.20;;
58470;SDS011;44258;51.288;12.068;2022-07-31T09:24:13;9.98;;;4.80;;
58470;SDS011;44258;51.288;12.068;2022-07-31T09:26:59;8.50;;;4.45;;
58470;SDS011;44258;51.288;12.068;2022-07-31T09:32:05;9.30;;;4.80;;
58470;SDS011;44258;51.288;12.068;2022-07-31T09:34:32;8.05;;;4.82;;
58470;SDS011;44258;51.288;12.068;2022-07-31T09:37:05;10.85;;;5.43;;
58470;SDS011;44258;51.288;12.068;2022-07-31T09:39:33;9.48;;;4.38;;
58470;SDS011;44258;51.288;12.068;2022-07-31T09:42:01;9.75;;;4.57;;
58470;SDS011;44258;51.288;12.068;2022-07-31T09:44:34;9.00;;;4.53;;
58470;SDS011;44258;51.288;12.068;2022-07-31T09:47:01;7.18;;;3.97;;
58470;SDS011;44258;51.288;12.068;2022-07-31T09:49:31;7.85;;;4.20;;
58470;SDS011;44258;51.288;12.068;2022-07-31T09:51:59;7.60;;;4.20;;
58470;SDS011;44258;51.288;12.068;2022-07-31T09:54:27;8.25;;;4.28;;
58470;SDS011;44258;51.288;12.068;2022-07-31T09:56:55;7.03;;;3.85;;
58470;SDS011;44258;51.288;12.068;2022-07-31T09:59:24;7.57;;;4.00;;
58470;SDS011;44258;51.288;12.068;2022-07-31T10:01:51;8.25;;;3.95;;
58470;SDS011;44258;51.288;12.068;2022-07-31T10:04:19;7.82;;;3.67;;
58470;SDS011;44258;51.288;12.068;2022-07-31T10:06:48;8.15;;;4.05;;
58470;SDS011;44258;51.288;12.068;2022-07-31T10:09:17;8.93;;;3.88;;
58470;SDS011;44258;51.288;12.068;2022-07-31T10:11:45;9.77;;;4.10;;
58470;SDS011;44258;51.288;12.068;2022-07-31T10:14:16;5.45;;;3.10;;
58470;SDS011;44258;51.288;12.068;2022-07-31T10:16:47;7.03;;;3.58;;
58470;SDS011;44258;51.288;12.068;2022-07-31T10:19:17;7.05;;;3.78;;
58470;SDS011;44258;51.288;12.068;2022-07-31T10:21:46;6.15;;;3.67;;
58470;SDS011;44258;51.288;12.068;2022-07-31T10:24:20;6.53;;;3.63;;
58470;SDS011;44258;51.288;12.068;2022-07-31T10:26:49;7.65;;;3.70;;
58470;SDS011;44258;51.288;12.068;2022-07-31T10:29:17;6.53;;;3.67;;
58470;SDS011;44258;51.288;12.068;2022-07-31T10:31:44;6.43;;;3.85;;
58470;SDS011;44258;51.288;12.068;2022-07-31T10:34:13;7.43;;;3.53;;
58470;SDS011;44258;51.288;12.068;2022-07-31T10:36:41;6.57;;;3.55;;
58470;SDS011;44258;51.288;12.068;2022-07-31T10:39:13;6.68;;;3.15;;
58470;SDS011;44258;51.288;12.068;2022-07-31T10:41:45;6.32;;;3.40;;
58470;SDS011;44258;51.288;12.068;2022-07-31T10:44:16;8.40;;;3.85;;
58470;SDS011;44258;51.288;12.068;2022-07-31T10:46:47;5.65;;;3.03;;
58470;SDS011;44258;51.288;12.068;2022-07-31T10:49:15;6.22;;;2.90;;
58470;SDS011;44258;51.288;12.068;2022-07-31T10:51:45;6.88;;;3.00;;
58470;SDS011;44258;51.288;12.068;2022-07-31T10:54:12;4.65;;;2.55;;
58470;SDS011;44258;51.288;12.068;2022-07-31T10:56:39;6.57;;;2.80;;
58470;SDS011;44258;51.288;12.068;2022-07-31T10:59:07;4.82;;;2.50;;
58470;SDS011;44258;51.288;12.068;2022-07-31T11:01:43;4.93;;;2.78;;
58470;SDS011;44258;51.288;12.068;2022-07-31T11:04:11;4.78;;;2.50;;
58470;SDS011;44258;51.288;12.068;2022-07-31T11:06:40;7.07;;;2.80;;
58470;SDS011;44258;51.288;12.068;2022-07-31T11:09:08;3.85;;;2.17;;
58470;SDS011;44258;51.288;12.068;2022-07-31T11:11:36;5.03;;;2.25;;
58470;SDS011;44258;51.288;12.068;2022-07-31T11:14:03;4.78;;;2.10;;
58470;SDS011;44258;51.288;12.068;2022-07-31T11:16:29;4.18;;;2.13;;
58470;SDS011;44258;51.288;12.068;2022-07-31T11:18:56;3.53;;;1.90;;
58470;SDS011;44258;51.288;12.068;2022-07-31T11:21:31;2.58;;;1.70;;
58470;SDS011;44258;51.288;12.068;2022-07-31T11:24:00;3.05;;;1.60;;
58470;SDS011;44258;51.288;12.068;2022-07-31T11:26:36;3.00;;;1.33;;
58470;SDS011;44258;51.288;12.068;2022-07-31T11:29:03;3.45;;;1.58;;
58470;SDS011;44258;51.288;12.068;2022-07-31T11:31:29;2.47;;;1.58;;
58470;SDS011;44258;51.288;12.068;2022-07-31T11:34:01;4.13;;;1.98;;
58470;SDS011;44258;51.288;12.068;2022-07-31T11:36:28;4.82;;;2.30;;
58470;SDS011;44258;51.288;12.068;2022-07-31T11:38:55;4.30;;;1.80;;
58470;SDS011;44258;51.288;12.068;2022-07-31T11:41:27;4.10;;;1.83;;
58470;SDS011;44258;51.288;12.068;2022-07-31T11:43:55;2.78;;;1.65;;
58470;SDS011;44258;51.288;12.068;2022-07-31T11:46:23;2.47;;;1.70;;
58470;SDS011;44258;51.288;12.068;2022-07-31T11:48:51;3.13;;;1.77;;
58470;SDS011;44258;51.288;12.068;2022-07-31T11:51:18;2.55;;;1.73;;
58470;SDS011;44258;51.288;12.068;2022-07-31T11:53:45;3.30;;;2.00;;
58470;SDS011;44258;51.288;12.068;2022-07-31T11:56:14;3.22;;;1.60;;
58470;SDS011;44258;51.288;12.068;2022-07-31T11:58:46;3.65;;;1.80;;
58470;SDS011;44258;51.288;12.068;2022-07-31T12:01:14;4.75;;;1.80;;
58470;SDS011;44258;51.288;12.068;2022-07-31T12:03:41;5.38;;;1.95;;
58470;SDS011;44258;51.288;12.068;2022-07-31T12:06:08;4.18;;;1.60;;
58470;SDS011;44258;51.288;12.068;2022-07-31T12:08:36;2.95;;;1.80;;
58470;SDS011;44258;51.288;12.068;2022-07-31T12:11:04;3.78;;;2.20;;
58470;SDS011;44258;51.288;12.068;2022-07-31T12:13:33;3.63;;;1.80;;
58470;SDS011;44258;51.288;12.068;2022-07-31T12:16:02;2.40;;;1.55;;
58470;SDS011;44258;51.288;12.068;2022-07-31T12:18:30;3.92;;;1.80;;
58470;SDS011;44258;51.288;12.068;2022-07-31T12:20:59;2.85;;;1.80;;
58470;SDS011;44258;51.288;12.068;2022-07-31T12:23:37;2.78;;;1.77;;
58470;SDS011;44258;51.288;12.068;2022-07-31T12:26:05;3.03;;;1.70;;
58470;SDS011;44258;51.288;12.068;2022-07-31T12:28:32;2.75;;;1.83;;
58470;SDS011;44258;51.288;12.068;2022-07-31T12:30:59;3.60;;;2.15;;
58470;SDS011;44258;51.288;12.068;2022-07-31T12:33:27;3.60;;;2.10;;
58470;SDS011;44258;51.288;12.068;2022-07-31T12:35:53;2.53;;;1.90;;
58470;SDS011;44258;51.288;12.068;2022-07-31T12:38:24;2.83;;;2.10;;
58470;SDS011;44258;51.288;12.068;2022-07-31T12:41:00;3.28;;;2.08;;
58470;SDS011;44258;51.288;12.068;2022-07-31T12:43:28;3.83;;;2.42;;
58470;SDS011;44258;51.288;12.068;2022-07-31T12:45:55;3.30;;;1.92;;
58470;SDS011;44258;51.288;12.068;2022-07-31T12:48:24;4.07;;;2.17;;
58470;SDS011;44258;51.288;12.068;2022-07-31T12:50:52;3.70;;;2.10;;
58470;SDS011;44258;51.288;12.068;2022-07-31T12:53:19;5.95;;;2.20;;
58470;SDS011;44258;51.288;12.068;2022-07-31T12:55:45;4.55;;;2.50;;
58470;SDS011;44258;51.288;12.068;2022-07-31T12:58:12;4.13;;;2.10;;
58470;SDS011;44258;51.288;12.068;2022-07-31T13:00:39;3.15;;;2.00;;
58470;SDS011;44258;51.288;12.068;2022-07-31T13:03:05;4.03;;;2.28;;
58470;SDS011;44258;51.288;12.068;2022-07-31T13:05:32;3.75;;;1.95;;
58470;SDS011;44258;51.288;12.068;2022-07-31T13:08:00;3.70;;;2.20;;
58470;SDS011;44258;51.288;12.068;2022-07-31T13:10:26;5.38;;;2.50;;
58470;SDS011;44258;51.288;12.068;2022-07-31T13:12:56;4.20;;;2.40;;
58470;SDS011;44258;51.288;12.068;2022-07-31T13:15:22;4.47;;;2.58;;
58470;SDS011;44258;51.288;12.068;2022-07-31T13:17:53;5.40;;;2.60;;
58470;SDS011;44258;51.288;12.068;2022-07-31T13:20:20;3.20;;;2.20;;
58470;SDS011;44258;51.288;12.068;2022-07-31T13:22:46;5.22;;;2.58;;
58470;SDS011;44258;51.288;12.068;2022-07-31T13:25:14;5.97;;;2.40;;
58470;SDS011;44258;51.288;12.068;2022-07-31T13:27:42;4.63;;;2.28;;
58470;SDS011;44258;51.288;12.068;2022-07-31T13:30:09;3.25;;;2.08;;
58470;SDS011;44258;51.288;12.068;2022-07-31T13:32:37;4.90;;;1.95;;
58470;SDS011;44258;51.288;12.068;2022-07-31T13:35:04;4.82;;;2.10;;
58470;SDS011;44258;51.288;12.068;2022-07-31T13:37:32;3.47;;;1.90;;
58470;SDS011;44258;51.288;12.068;2022-07-31T13:39:58;4.47;;;2.17;;
58470;SDS011;44258;51.288;12.068;2022-07-31T13:42:26;4.50;;;2.10;;
58470;SDS011;44258;51.288;12.068;2022-07-31T13:44:53;4.68;;;2.28;;
58470;SDS011;44258;51.288;12.068;2022-07-31T13:47:20;4.30;;;2.20;;
58470;SDS011;44258;51.288;12.068;2022-07-31T13:49:47;4.03;;;2.28;;
58470;SDS011;44258;51.288;12.068;2022-07-31T13:52:13;5.45;;;2.13;;
58470;SDS011;44258;51.288;12.068;2022-07-31T13:54:40;3.80;;;1.95;;
58470;SDS011;44258;51.288;12.068;2022-07-31T13:57:07;4.00;;;2.20;;
58470;SDS011;44258;51.288;12.068;2022-07-31T13:59:36;3.40;;;2.00;;
58470;SDS011;44258;51.288;12.068;2022-07-31T14:02:03;5.63;;;2.03;;
58470;SDS011;44258;51.288;12.068;2022-07-31T14:04:30;5.03;;;1.95;;
58470;SDS011;44258;51.288;12.068;2022-07-31T14:06:56;3.55;;;2.13;;
58470;SDS011;44258;51.288;12.068;2022-07-31T14:09:24;3.47;;;2.05;;
58470;SDS011;44258;51.288;12.068;2022-07-31T14:11:51;3.75;;;1.95;;
58470;SDS011;44258;51.288;12.068;2022-07-31T14:14:17;5.03;;;2.15;;
58470;SDS011;44258;51.288;12.068;2022-07-31T14:16:45;4.60;;;2.00;;
58470;SDS011;44258;51.288;12.068;2022-07-31T14:19:12;5.20;;;2.20;;
58470;SDS011;44258;51.288;12.068;2022-07-31T14:21:39;3.50;;;2.08;;
58470;SDS011;44258;51.288;12.068;2022-07-31T14:24:05;4.18;;;1.92;;
58470;SDS011;44258;51.288;12.068;2022-07-31T14:26:32;4.43;;;2.03;;
58470;SDS011;44258;51.288;12.068;2022-07-31T14:29:02;3.38;;;2.10;;
58470;SDS011;44258;51.288;12.068;2022-07-31T14:31:29;4.15;;;2.05;;
58470;SDS011;44258;51.288;12.068;2022-07-31T14:34:01;4.82;;;2.03;;
58470;SDS011;44258;51.288;12.068;2022-07-31T14:36:28;2.55;;;2.00;;
58470;SDS011;44258;51.288;12.068;2022-07-31T14:38:54;4.03;;;2.10;;